Time;durP1;ratioP1;P1;durP2;ratioP2;P2;SDS_P1;SDS_P2;PMS_P1;PMS_P2;Temp;Humidity;BMP_temperature;BMP_pressure;BME280_temperature;BME280_humidity;BME280_pressure;Samples;Min_cycle;Max_cycle;Signal;HPM_P1;HPM_P2
2022/03/01 00:00:08;;;;;;;;;;;6.80;50.40;;;;;;6165670;23;19917;-76
2022/03/01 00:02:35;;;;;;;;;;;6.80;50.50;;;;;;6164287;23;19917;-76
2022/03/01 00:05:02;;;;;;;;;;;6.70;51.20;;;;;;6160269;23;19916;-76
2022/03/01 00:07:28;;;;;;;;;;;6.70;51.60;;;;;;6154514;23;19916;-76
2022/03/01 00:09:55;;;;;;;;;;;6.70;51.70;;;;;;6161424;23;19985;-75
2022/03/01 00:12:22;;;;;;;;;;;6.70;51.80;;;;;;6154495;23;19920;-76
2022/03/01 00:14:49;;;;;;;;;;;6.80;51.50;;;;;;6157241;23;19916;-76
2022/03/01 00:17:15;;;;;;;;;;;6.80;50.50;;;;;;6163169;23;19925;-76
2022/03/01 00:19:42;;;;;;;;;;;6.80;50.70;;;;;;6161155;23;19964;-76
2022/03/01 00:22:09;;;;;;;;;;;6.80;50.80;;;;;;6154061;23;20330;-76
2022/03/01 00:24:36;;;;;;;;;;;6.80;50.60;;;;;;6157455;23;19963;-76
2022/03/01 00:27:02;;;;;;;;;;;6.80;50.80;;;;;;6154141;23;19944;-76
2022/03/01 00:29:29;;;;;;;;;;;6.80;50.80;;;;;;6159758;23;19917;-76
2022/03/01 00:31:56;;;;;;;;;;;6.80;50.90;;;;;;6156799;23;19916;-76
2022/03/01 00:34:23;;;;;;;;;;;6.80;50.80;;;;;;6153184;23;20360;-76
2022/03/01 00:36:50;;;;;;;;;;;6.80;50.60;;;;;;6154191;23;19916;-76
2022/03/01 00:39:17;;;;;;;;;;;6.80;50.60;;;;;;6164219;23;19917;-75
2022/03/01 00:41:43;;;;;;;;;;;6.80;50.70;;;;;;6155165;23;20250;-76
2022/03/01 00:44:10;;;;;;;;;;;6.80;49.90;;;;;;6158306;23;19917;-74
2022/03/01 00:46:38;;;;;;;;;;;6.80;48.80;;;;;;6157238;23;20338;-76
2022/03/01 00:49:05;;;;;;;;;;;6.80;48.40;;;;;;6158173;23;19971;-76
2022/03/01 00:51:31;;;;;;;;;;;6.80;47.50;;;;;;6185026;23;19939;-76
2022/03/01 00:53:58;;;;;;;;;;;6.80;47.50;;;;;;6152408;23;19971;-76
2022/03/01 00:56:25;;;;;;;;;;;6.80;47.60;;;;;;6158306;23;19917;-75
2022/03/01 00:58:52;;;;;;;;;;;6.80;47.70;;;;;;6154529;23;19920;-76
2022/03/01 01:01:18;;;;;;;;;;;6.70;47.80;;;;;;6159998;23;20293;-76
2022/03/01 01:03:46;;;;;;;;;;;6.70;48.10;;;;;;6162823;23;19917;-76
2022/03/01 01:06:13;;;;;;;;;;;6.60;48.40;;;;;;6160506;23;19916;-75
2022/03/01 01:08:39;;;;;;;;;;;6.60;48.70;;;;;;6154082;23;19917;-76
2022/03/01 01:11:08;;;;;;;;;;;6.50;49.10;;;;;;6156565;23;19923;-76
2022/03/01 01:13:35;;;;;;;;;;;6.50;49.80;;;;;;6156827;23;20405;-76
2022/03/01 01:16:02;;;;;;;;;;;6.40;50.10;;;;;;6154211;23;19917;-76
2022/03/01 01:18:32;;;;;;;;;;;6.40;50.80;;;;;;6159800;23;20257;-75
2022/03/01 01:20:59;;;;;;;;;;;6.30;51.30;;;;;;6109669;23;1162041;-76
2022/03/01 01:23:25;;;;;;;;;;;6.20;51.70;;;;;;6178948;23;19967;-77
2022/03/01 01:25:52;;;;;;;;;;;6.20;52.50;;;;;;6157859;23;20016;-76
2022/03/01 01:28:19;;;;;;;;;;;6.10;52.70;;;;;;6158083;23;19916;-76
2022/03/01 01:30:46;;;;;;;;;;;6.10;53.60;;;;;;6159216;23;19944;-75
2022/03/01 01:33:15;;;;;;;;;;;6.00;54.00;;;;;;6159142;23;19955;-75
2022/03/01 01:35:42;;;;;;;;;;;5.90;54.40;;;;;;6160973;23;19924;-75
2022/03/01 01:38:08;;;;;;;;;;;5.90;54.70;;;;;;6159387;23;19940;-77
2022/03/01 01:40:36;;;;;;;;;;;5.80;55.10;;;;;;6158266;23;19920;-75
2022/03/01 01:43:04;;;;;;;;;;;5.80;55.20;;;;;;6163103;23;19916;-76
2022/03/01 01:45:31;;;;;;;;;;;5.70;55.10;;;;;;6155808;23;19983;-76
2022/03/01 01:47:59;;;;;;;;;;;5.70;55.50;;;;;;6153635;23;20427;-76
2022/03/01 01:50:27;;;;;;;;;;;5.60;55.40;;;;;;6155494;23;19917;-76
2022/03/01 01:52:54;;;;;;;;;;;5.60;55.40;;;;;;6156615;23;19923;-76
2022/03/01 01:55:22;;;;;;;;;;;5.60;55.30;;;;;;6156098;23;19916;-77
2022/03/01 01:57:56;;;;;;;;;;;5.50;54.80;;;;;;6160779;23;20227;-76
2022/03/01 02:00:22;;;;;;;;;;;5.50;54.90;;;;;;6161918;23;19924;-75
2022/03/01 02:02:49;;;;;;;;;;;5.40;54.90;;;;;;6156654;23;20258;-76
2022/03/01 02:05:16;;;;;;;;;;;5.40;55.10;;;;;;6156974;23;19916;-75
2022/03/01 02:07:44;;;;;;;;;;;5.30;55.00;;;;;;6155006;23;19917;-76
2022/03/01 02:10:11;;;;;;;;;;;5.30;55.10;;;;;;6157209;23;19923;-77
2022/03/01 02:12:38;;;;;;;;;;;5.30;55.20;;;;;;6155719;23;19963;-76
2022/03/01 02:15:05;;;;;;;;;;;5.30;55.30;;;;;;6157094;23;19920;-77
2022/03/01 02:17:32;;;;;;;;;;;5.30;55.30;;;;;;6155625;23;20326;-76
2022/03/01 02:19:59;;;;;;;;;;;5.30;55.30;;;;;;6157986;23;19963;-76
2022/03/01 02:22:33;;;;;;;;;;;5.30;55.30;;;;;;6162759;23;19987;-76
2022/03/01 02:25:00;;;;;;;;;;;5.30;55.30;;;;;;6155037;23;19987;-76
2022/03/01 02:27:29;;;;;;;;;;;5.30;55.20;;;;;;6161505;23;19924;-77
2022/03/01 02:29:56;;;;;;;;;;;5.30;54.70;;;;;;6152993;23;20298;-76
2022/03/01 02:32:23;;;;;;;;;;;5.30;54.70;;;;;;6165682;23;19917;-75
2022/03/01 02:34:50;;;;;;;;;;;5.30;54.30;;;;;;6156452;23;19917;-75
2022/03/01 02:37:16;;;;;;;;;;;5.20;54.30;;;;;;6161085;23;20321;-76
2022/03/01 02:39:43;;;;;;;;;;;5.20;54.50;;;;;;6158078;23;19916;-76
2022/03/01 02:42:10;;;;;;;;;;;5.20;54.20;;;;;;6157457;23;19916;-76
2022/03/01 02:44:37;;;;;;;;;;;5.20;54.00;;;;;;6154128;23;19916;-76
2022/03/01 02:47:04;;;;;;;;;;;5.20;53.70;;;;;;6153002;23;19991;-75
2022/03/01 02:49:31;;;;;;;;;;;5.10;53.50;;;;;;6159302;23;19939;-75
2022/03/01 02:51:58;;;;;;;;;;;5.10;53.70;;;;;;6181557;23;20356;-76
2022/03/01 02:54:25;;;;;;;;;;;5.10;52.80;;;;;;6160668;23;20338;-75
2022/03/01 02:56:51;;;;;;;;;;;5.10;52.60;;;;;;6159252;23;20297;-75
2022/03/01 02:59:18;;;;;;;;;;;5.10;53.10;;;;;;6159525;23;19920;-75
2022/03/01 03:01:45;;;;;;;;;;;5.10;53.10;;;;;;6158264;23;20249;-76
2022/03/01 03:04:12;;;;;;;;;;;5.10;53.00;;;;;;6157241;23;19923;-75
2022/03/01 03:06:42;;;;;;;;;;;5.10;53.10;;;;;;6159735;23;19917;-74
2022/03/01 03:09:09;;;;;;;;;;;5.10;53.30;;;;;;6156129;23;19979;-76
2022/03/01 03:11:35;;;;;;;;;;;5.10;53.80;;;;;;6153473;23;19967;-76
2022/03/01 03:14:02;;;;;;;;;;;5.10;53.90;;;;;;6152635;23;20311;-76
2022/03/01 03:16:29;;;;;;;;;;;5.10;53.70;;;;;;6155295;23;19917;-76
2022/03/01 03:18:56;;;;;;;;;;;5.10;53.40;;;;;;6152781;23;20297;-76
2022/03/01 03:21:23;;;;;;;;;;;5.10;53.20;;;;;;6154575;23;19923;-76
2022/03/01 03:23:50;;;;;;;;;;;5.10;52.60;;;;;;6152592;23;19939;-76
2022/03/01 03:26:16;;;;;;;;;;;5.10;52.60;;;;;;6159166;23;19940;-75
2022/03/01 03:28:46;;;;;;;;;;;5.10;52.90;;;;;;6163588;23;19917;-76
2022/03/01 03:31:13;;;;;;;;;;;5.10;53.10;;;;;;6157859;23;19967;-76
2022/03/01 03:33:40;;;;;;;;;;;5.00;53.00;;;;;;6157214;23;19923;-76
2022/03/01 03:36:06;;;;;;;;;;;5.00;53.00;;;;;;6155040;23;19917;-75
2022/03/01 03:38:33;;;;;;;;;;;5.00;52.80;;;;;;6156188;23;20012;-76
2022/03/01 03:41:00;;;;;;;;;;;5.00;53.00;;;;;;6158075;23;20003;-75
2022/03/01 03:43:27;;;;;;;;;;;5.00;52.90;;;;;;6152952;23;20330;-76
2022/03/01 03:45:53;;;;;;;;;;;5.00;53.20;;;;;;6153591;23;19944;-75
2022/03/01 03:48:20;;;;;;;;;;;5.00;53.20;;;;;;6153259;23;19917;-75
2022/03/01 03:50:47;;;;;;;;;;;5.00;53.40;;;;;;6157762;23;20365;-76
2022/03/01 03:53:14;;;;;;;;;;;5.00;53.70;;;;;;6159568;23;19947;-74
2022/03/01 03:55:41;;;;;;;;;;;5.00;53.50;;;;;;6156486;23;19916;-76
2022/03/01 03:58:07;;;;;;;;;;;5.00;53.60;;;;;;6152545;23;19940;-76
2022/03/01 04:00:34;;;;;;;;;;;5.00;53.60;;;;;;6153186;23;19924;-76
2022/03/01 04:03:01;;;;;;;;;;;5.00;53.00;;;;;;6160575;23;19951;-76
2022/03/01 04:05:28;;;;;;;;;;;4.90;52.50;;;;;;6159285;23;19923;-76
2022/03/01 04:07:57;;;;;;;;;;;4.90;52.20;;;;;;6163472;23;20297;-75
2022/03/01 04:10:24;;;;;;;;;;;4.90;51.90;;;;;;6157799;23;19967;-76
2022/03/01 04:12:51;;;;;;;;;;;4.80;51.60;;;;;;6156885;23;20338;-76
2022/03/01 04:15:18;;;;;;;;;;;4.80;51.90;;;;;;6154728;23;19971;-76
2022/03/01 04:17:45;;;;;;;;;;;4.80;52.30;;;;;;6153550;23;19936;-76
2022/03/01 04:20:12;;;;;;;;;;;4.70;52.40;;;;;;6156641;23;20247;-75
2022/03/01 04:22:39;;;;;;;;;;;4.70;51.80;;;;;;6153096;23;19921;-76
2022/03/01 04:25:06;;;;;;;;;;;4.70;51.90;;;;;;6158177;23;19927;-76
2022/03/01 04:27:33;;;;;;;;;;;4.70;51.90;;;;;;6181044;23;19943;-76
2022/03/01 04:30:00;;;;;;;;;;;4.60;51.70;;;;;;6160258;23;19917;-75
2022/03/01 04:32:26;;;;;;;;;;;4.60;51.40;;;;;;6165506;23;20257;-74
2022/03/01 04:34:53;;;;;;;;;;;4.60;50.50;;;;;;6161732;23;19989;-75
2022/03/01 04:37:20;;;;;;;;;;;4.60;51.80;;;;;;6156497;23;19916;-76
2022/03/01 04:39:47;;;;;;;;;;;4.60;50.20;;;;;;6157797;23;19921;-76
2022/03/01 04:42:16;;;;;;;;;;;4.60;50.60;;;;;;6160221;23;19971;-75
2022/03/01 04:44:43;;;;;;;;;;;4.50;50.80;;;;;;6157934;23;19917;-76
2022/03/01 04:47:10;;;;;;;;;;;4.50;50.80;;;;;;6156121;23;19947;-76
2022/03/01 04:49:37;;;;;;;;;;;4.50;50.90;;;;;;6154677;23;19917;-75
2022/03/01 04:52:04;;;;;;;;;;;4.50;51.10;;;;;;6158763;23;19917;-76
2022/03/01 04:54:31;;;;;;;;;;;4.50;51.10;;;;;;6156785;23;19948;-76
2022/03/01 04:56:58;;;;;;;;;;;4.50;50.50;;;;;;6160033;23;19923;-74
2022/03/01 04:59:25;;;;;;;;;;;4.50;50.70;;;;;;6157877;23;19939;-75
2022/03/01 05:01:51;;;;;;;;;;;4.50;49.30;;;;;;6160191;23;19948;-76
2022/03/01 05:04:18;;;;;;;;;;;4.50;49.20;;;;;;6161126;23;19916;-76
2022/03/01 05:06:46;;;;;;;;;;;4.50;49.10;;;;;;6155895;23;19917;-77
2022/03/01 05:09:12;;;;;;;;;;;4.50;49.30;;;;;;6160612;23;19916;-76
2022/03/01 05:11:39;;;;;;;;;;;4.50;49.50;;;;;;6156839;23;19967;-76
2022/03/01 05:14:06;;;;;;;;;;;4.50;49.30;;;;;;6156973;23;19955;-77
2022/03/01 05:16:33;;;;;;;;;;;4.50;49.20;;;;;;6156694;23;19930;-77
2022/03/01 05:19:00;;;;;;;;;;;4.50;49.50;;;;;;6159144;23;19920;-77
2022/03/01 05:21:28;;;;;;;;;;;4.50;49.50;;;;;;6164912;23;19924;-76
2022/03/01 05:23:55;;;;;;;;;;;4.40;49.50;;;;;;6154068;23;19921;-77
2022/03/01 05:26:22;;;;;;;;;;;4.40;49.80;;;;;;6154531;23;19920;-76
2022/03/01 05:28:49;;;;;;;;;;;4.40;49.60;;;;;;6156138;23;20405;-76
2022/03/01 05:31:17;;;;;;;;;;;4.40;50.30;;;;;;6158600;23;20384;-75
2022/03/01 05:33:46;;;;;;;;;;;4.30;50.30;;;;;;6155740;23;19940;-77
2022/03/01 05:36:13;;;;;;;;;;;4.40;50.40;;;;;;6159865;23;19972;-74
2022/03/01 05:38:41;;;;;;;;;;;4.30;50.70;;;;;;6163091;23;20356;-75
2022/03/01 05:41:08;;;;;;;;;;;4.30;50.60;;;;;;6157383;23;19999;-76
2022/03/01 05:43:35;;;;;;;;;;;4.30;50.70;;;;;;6161601;23;19916;-76
2022/03/01 05:46:02;;;;;;;;;;;4.30;50.90;;;;;;6157658;23;19987;-76
2022/03/01 05:48:29;;;;;;;;;;;4.30;51.00;;;;;;6167969;23;20293;-75
2022/03/01 05:50:56;;;;;;;;;;;4.30;50.60;;;;;;6158697;23;19920;-75
2022/03/01 05:53:22;;;;;;;;;;;4.30;50.40;;;;;;6159516;23;19956;-74
2022/03/01 05:55:49;;;;;;;;;;;4.30;50.60;;;;;;6160628;23;19921;-75
2022/03/01 05:58:16;;;;;;;;;;;4.30;51.00;;;;;;6158823;23;19917;-76
2022/03/01 06:00:43;;;;;;;;;;;4.20;51.40;;;;;;6158980;23;19916;-77
2022/03/01 06:03:10;;;;;;;;;;;4.20;51.80;;;;;;6160754;23;19917;-76
2022/03/01 06:05:37;;;;;;;;;;;4.20;52.00;;;;;;6159079;23;19917;-75
2022/03/01 06:08:03;;;;;;;;;;;4.10;51.70;;;;;;6164753;23;19921;-76
2022/03/01 06:10:30;;;;;;;;;;;4.10;51.40;;;;;;6157666;23;19917;-76
2022/03/01 06:12:57;;;;;;;;;;;4.10;51.50;;;;;;6157648;23;19920;-76
2022/03/01 06:15:24;;;;;;;;;;;4.20;51.60;;;;;;6156947;23;19923;-76
2022/03/01 06:17:51;;;;;;;;;;;4.20;52.30;;;;;;6165220;23;20372;-77
2022/03/01 06:20:18;;;;;;;;;;;4.10;52.00;;;;;;6158605;23;20338;-74
2022/03/01 06:22:45;;;;;;;;;;;4.10;51.80;;;;;;6161220;23;19917;-75
2022/03/01 06:25:12;;;;;;;;;;;4.10;51.50;;;;;;6161656;23;19916;-76
2022/03/01 06:27:40;;;;;;;;;;;4.20;51.40;;;;;;6157493;23;20364;-76
2022/03/01 06:30:08;;;;;;;;;;;4.10;51.30;;;;;;6159766;23;20353;-76
2022/03/01 06:32:35;;;;;;;;;;;4.20;51.20;;;;;;6185100;23;19971;-76
2022/03/01 06:35:02;;;;;;;;;;;4.20;51.40;;;;;;6154642;23;20381;-76
2022/03/01 06:37:38;;;;;;;;;;;4.20;51.50;;;;;;6157970;23;19917;-76
2022/03/01 06:40:06;;;;;;;;;;;4.10;51.80;;;;;;6160447;23;19916;-75
2022/03/01 06:42:34;;;;;;;;;;;4.20;51.60;;;;;;6160087;23;19924;-77
2022/03/01 06:45:01;;;;;;;;;;;4.20;51.50;;;;;;6155861;23;19920;-75
2022/03/01 06:47:28;;;;;;;;;;;4.20;51.20;;;;;;6187962;23;19916;-75
2022/03/01 06:49:55;;;;;;;;;;;4.20;51.10;;;;;;6161846;23;19916;-76
2022/03/01 06:52:21;;;;;;;;;;;4.20;51.30;;;;;;6161671;23;19917;-75
2022/03/01 06:54:48;;;;;;;;;;;4.30;51.70;;;;;;6155646;23;20345;-76
2022/03/01 06:57:15;;;;;;;;;;;4.30;51.50;;;;;;6159747;23;20346;-74
2022/03/01 06:59:42;;;;;;;;;;;4.30;51.60;;;;;;6158365;23;19917;-75
2022/03/01 07:02:09;;;;;;;;;;;4.30;51.50;;;;;;6155757;23;19916;-76
2022/03/01 07:04:36;;;;;;;;;;;4.30;51.80;;;;;;6156599;23;19917;-76
2022/03/01 07:07:05;;;;;;;;;;;4.30;52.40;;;;;;6162454;23;20257;-75
2022/03/01 07:09:32;;;;;;;;;;;4.30;51.90;;;;;;6159381;23;19975;-75
2022/03/01 07:11:58;;;;;;;;;;;4.40;52.20;;;;;;6161048;23;19924;-76
2022/03/01 07:14:25;;;;;;;;;;;4.40;52.40;;;;;;6153192;23;19916;-76
2022/03/01 07:16:52;;;;;;;;;;;4.40;52.70;;;;;;6153808;23;20412;-76
2022/03/01 07:19:19;;;;;;;;;;;4.40;52.40;;;;;;6160363;23;19917;-76
2022/03/01 07:21:46;;;;;;;;;;;4.40;52.50;;;;;;6160836;23;20322;-77
2022/03/01 07:24:13;;;;;;;;;;;4.40;52.40;;;;;;6153116;23;19969;-77
2022/03/01 07:26:40;;;;;;;;;;;4.50;52.30;;;;;;6157669;23;19916;-77
2022/03/01 07:29:07;;;;;;;;;;;4.50;51.80;;;;;;6159117;23;19916;-75
2022/03/01 07:31:34;;;;;;;;;;;4.50;51.50;;;;;;6158707;23;19920;-75
2022/03/01 07:34:02;;;;;;;;;;;4.50;51.70;;;;;;6166908;23;19921;-75
2022/03/01 07:36:28;;;;;;;;;;;4.60;52.10;;;;;;6157679;23;19977;-76
2022/03/01 07:38:55;;;;;;;;;;;4.60;52.20;;;;;;6157646;23;19917;-77
2022/03/01 07:41:22;;;;;;;;;;;4.60;52.30;;;;;;6159606;23;19940;-75
2022/03/01 07:43:49;;;;;;;;;;;4.70;52.60;;;;;;6157542;23;20330;-77
2022/03/01 07:46:15;;;;;;;;;;;4.70;52.30;;;;;;6155258;23;19932;-76
2022/03/01 07:48:42;;;;;;;;;;;4.70;52.20;;;;;;6159169;23;19917;-74
2022/03/01 07:51:09;;;;;;;;;;;4.70;51.90;;;;;;6159195;23;20349;-76
2022/03/01 07:53:37;;;;;;;;;;;4.70;51.80;;;;;;6155876;23;19923;-77
2022/03/01 07:56:04;;;;;;;;;;;4.80;51.70;;;;;;6161403;23;19916;-77
2022/03/01 07:58:31;;;;;;;;;;;4.80;51.40;;;;;;6154311;23;19921;-77
2022/03/01 08:00:58;;;;;;;;;;;4.80;51.30;;;;;;6155675;23;19975;-76
2022/03/01 08:03:25;;;;;;;;;;;4.90;50.90;;;;;;6152941;23;19921;-77
2022/03/01 08:05:53;;;;;;;;;;;4.90;50.40;;;;;;6157991;23;19916;-77
2022/03/01 08:08:19;;;;;;;;;;;5.00;50.10;;;;;;6157188;23;19917;-76
2022/03/01 08:10:49;;;;;;;;;;;5.00;49.70;;;;;;6162544;23;19916;-77
2022/03/01 08:13:36;;;;;;;;;;;5.10;50.10;;;;;;6155079;23;19916;-76
2022/03/01 08:16:04;;;;;;;;;;;5.10;52.90;;;;;;6153339;23;20356;-76
2022/03/01 08:18:31;;;;;;;;;;;5.10;53.00;;;;;;6159288;23;19916;-76
2022/03/01 08:20:58;;;;;;;;;;;5.10;53.00;;;;;;6157466;23;19920;-76
2022/03/01 08:23:25;;;;;;;;;;;5.10;52.80;;;;;;6159014;23;19916;-74
2022/03/01 08:25:52;;;;;;;;;;;5.20;52.50;;;;;;6158253;23;19917;-77
2022/03/01 08:28:19;;;;;;;;;;;5.20;52.00;;;;;;6158585;23;20338;-77
2022/03/01 08:30:46;;;;;;;;;;;5.30;51.70;;;;;;6158929;23;19940;-76
2022/03/01 08:33:16;;;;;;;;;;;5.30;51.30;;;;;;6155856;23;19916;-77
2022/03/01 08:35:43;;;;;;;;;;;5.40;50.30;;;;;;6155599;23;20346;-78
2022/03/01 08:38:10;;;;;;;;;;;5.40;50.60;;;;;;6158540;23;19964;-76
2022/03/01 08:40:38;;;;;;;;;;;5.40;50.50;;;;;;6156777;23;19972;-76
2022/03/01 08:43:08;;;;;;;;;;;5.40;50.50;;;;;;6161909;23;19916;-76
2022/03/01 08:45:35;;;;;;;;;;;5.50;50.90;;;;;;6161000;23;19920;-76
2022/03/01 08:48:06;;;;;;;;;;;5.60;50.40;;;;;;6157806;23;19916;-75
2022/03/01 08:50:33;;;;;;;;;;;5.60;49.30;;;;;;6184497;23;19916;-77
2022/03/01 08:53:10;;;;;;;;;;;5.60;49.80;;;;;;6155703;23;19939;-74
2022/03/01 08:55:37;;;;;;;;;;;5.70;50.00;;;;;;6190383;23;19923;-77
2022/03/01 08:58:05;;;;;;;;;;;5.70;49.70;;;;;;6158842;23;20334;-76
2022/03/01 09:00:32;;;;;;;;;;;5.70;49.10;;;;;;6161736;23;20338;-77
2022/03/01 09:02:59;;;;;;;;;;;5.80;49.10;;;;;;6157462;23;19991;-76
2022/03/01 09:05:26;;;;;;;;;;;5.80;48.10;;;;;;6155680;23;19923;-76
2022/03/01 09:07:53;;;;;;;;;;;5.90;47.50;;;;;;6154742;23;19917;-76
2022/03/01 09:10:22;;;;;;;;;;;5.90;48.50;;;;;;6145460;23;20020;-77
2022/03/01 09:12:53;;;;;;;;;;;6.00;48.60;;;;;;6156116;23;19938;-75
2022/03/01 09:15:20;;;;;;;;;;;6.00;47.70;;;;;;6160287;23;20334;-75
2022/03/01 09:17:47;;;;;;;;;;;6.10;47.60;;;;;;6160922;23;19975;-75
2022/03/01 09:20:14;;;;;;;;;;;6.20;47.40;;;;;;6158013;23;20408;-76
2022/03/01 09:22:41;;;;;;;;;;;6.20;47.70;;;;;;6158924;23;19967;-77
2022/03/01 09:25:08;;;;;;;;;;;6.30;48.50;;;;;;6158747;23;19916;-75
2022/03/01 09:27:35;;;;;;;;;;;6.30;48.50;;;;;;6157456;23;19917;-76
2022/03/01 09:30:03;;;;;;;;;;;6.30;47.80;;;;;;6160374;23;20337;-77
2022/03/01 09:32:30;;;;;;;;;;;6.40;47.20;;;;;;6155973;23;19923;-75
2022/03/01 09:34:57;;;;;;;;;;;6.40;46.80;;;;;;6155515;23;19916;-76
2022/03/01 09:37:24;;;;;;;;;;;6.40;45.40;;;;;;6158836;23;20305;-76
2022/03/01 09:39:51;;;;;;;;;;;6.40;45.30;;;;;;6159345;23;19983;-75
2022/03/01 09:42:18;;;;;;;;;;;6.40;45.20;;;;;;6163105;23;19976;-75
2022/03/01 09:44:45;;;;;;;;;;;6.50;44.20;;;;;;6156884;23;19916;-76
2022/03/01 09:47:12;;;;;;;;;;;6.50;43.80;;;;;;6154387;23;19963;-77
2022/03/01 09:49:39;;;;;;;;;;;6.50;44.70;;;;;;6155103;23;20330;-75
2022/03/01 09:52:12;;;;;;;;;;;6.60;44.80;;;;;;6154183;23;20355;-76
2022/03/01 09:54:39;;;;;;;;;;;6.60;45.50;;;;;;6161233;23;19996;-76
2022/03/01 09:57:06;;;;;;;;;;;6.70;45.10;;;;;;6155965;23;19917;-77
2022/03/01 09:59:35;;;;;;;;;;;6.60;43.00;;;;;;6153849;23;19916;-76
2022/03/01 10:02:02;;;;;;;;;;;6.70;43.70;;;;;;6155693;23;20330;-76
2022/03/01 10:04:31;;;;;;;;;;;6.80;43.40;;;;;;6159035;23;19944;-76
2022/03/01 10:07:02;;;;;;;;;;;6.70;42.60;;;;;;6158088;23;19916;-77
2022/03/01 10:09:29;;;;;;;;;;;6.80;42.90;;;;;;6154023;23;20016;-76
2022/03/01 10:12:02;;;;;;;;;;;6.80;41.60;;;;;;6158185;23;19995;-77
2022/03/01 10:14:30;;;;;;;;;;;6.90;42.00;;;;;;6162056;23;19921;-76
2022/03/01 10:16:57;;;;;;;;;;;6.90;39.70;;;;;;6158612;23;19921;-76
2022/03/01 10:19:25;;;;;;;;;;;6.90;39.90;;;;;;6154689;23;19923;-76
2022/03/01 10:21:59;;;;;;;;;;;7.00;40.00;;;;;;6152981;23;20285;-76
2022/03/01 10:24:26;;;;;;;;;;;7.10;40.10;;;;;;6157200;23;19916;-75
2022/03/01 10:27:01;;;;;;;;;;;7.20;38.80;;;;;;6155285;23;19947;-75
2022/03/01 10:29:43;;;;;;;;;;;7.20;36.80;;;;;;6159109;23;19947;-76
2022/03/01 10:32:13;;;;;;;;;;;7.20;34.50;;;;;;6154142;23;19967;-76
2022/03/01 10:34:59;;;;;;;;;;;7.20;33.60;;;;;;6153129;23;19995;-76
2022/03/01 10:37:27;;;;;;;;;;;7.30;34.70;;;;;;6161216;23;19916;-74
2022/03/01 10:40:08;;;;;;;;;;;7.30;34.30;;;;;;6162804;23;20424;-75
2022/03/01 10:42:35;;;;;;;;;;;7.30;34.10;;;;;;6157805;23;19940;-77
2022/03/01 10:45:02;;;;;;;;;;;7.20;33.10;;;;;;6154626;23;19917;-75
2022/03/01 10:47:29;;;;;;;;;;;7.30;33.80;;;;;;6164807;23;19939;-76
2022/03/01 10:50:00;;;;;;;;;;;7.40;34.70;;;;;;6159334;23;19916;-77
2022/03/01 10:52:53;;;;;;;;;;;7.40;34.60;;;;;;6156070;23;19967;-77
2022/03/01 10:55:23;;;;;;;;;;;7.60;34.80;;;;;;6157398;23;19926;-74
2022/03/01 10:57:57;;;;;;;;;;;7.70;35.20;;;;;;6164210;23;19968;-76
2022/03/01 11:00:24;;;;;;;;;;;7.60;35.70;;;;;;6159135;23;19920;-75
2022/03/01 11:02:51;;;;;;;;;;;7.70;36.00;;;;;;6155159;23;19916;-77
2022/03/01 11:05:18;;;;;;;;;;;7.70;37.20;;;;;;6154727;23;19917;-75
2022/03/01 11:08:08;;;;;;;;;;;7.80;39.00;;;;;;6154407;23;19940;-76
2022/03/01 11:10:37;;;;;;;;;;;7.70;38.90;;;;;;6181368;23;19920;-77
2022/03/01 11:13:05;;;;;;;;;;;7.70;40.10;;;;;;6154780;23;20231;-77
2022/03/01 11:15:50;;;;;;;;;;;7.90;40.20;;;;;;6159160;23;19917;-76
2022/03/01 11:18:17;;;;;;;;;;;8.00;40.20;;;;;;6154411;23;19920;-76
2022/03/01 11:20:46;;;;;;;;;;;8.20;40.20;;;;;;6158401;23;20258;-75
2022/03/01 11:23:15;;;;;;;;;;;8.30;40.60;;;;;;6153710;23;19948;-76
2022/03/01 11:25:45;;;;;;;;;;;8.30;40.30;;;;;;6180495;23;19917;-77
2022/03/01 11:28:16;;;;;;;;;;;8.40;40.40;;;;;;6157939;23;19968;-74
2022/03/01 11:30:51;;;;;;;;;;;8.60;41.40;;;;;;6155745;23;20230;-75
2022/03/01 11:33:28;;;;;;;;;;;8.60;39.60;;;;;;6154577;23;20293;-77
2022/03/01 11:35:56;;;;;;;;;;;8.60;40.50;;;;;;6153595;23;19963;-77
2022/03/01 11:38:28;;;;;;;;;;;8.70;40.70;;;;;;6157319;23;20385;-76
2022/03/01 11:41:07;;;;;;;;;;;8.90;40.20;;;;;;6153507;23;19916;-76
2022/03/01 11:43:36;;;;;;;;;;;9.10;39.20;;;;;;6183475;23;19920;-75
2022/03/01 11:46:13;;;;;;;;;;;9.10;38.30;;;;;;6156585;23;20231;-76
2022/03/01 11:48:44;;;;;;;;;;;8.90;37.00;;;;;;6180869;23;19965;-75
2022/03/01 11:51:11;;;;;;;;;;;8.90;36.60;;;;;;6155716;23;20224;-75
2022/03/01 11:53:41;;;;;;;;;;;8.90;35.90;;;;;;6157344;23;19948;-76
2022/03/01 11:56:08;;;;;;;;;;;9.00;37.00;;;;;;6160878;23;19917;-77
2022/03/01 11:58:37;;;;;;;;;;;9.20;36.50;;;;;;6155745;23;19928;-74
2022/03/01 12:01:08;;;;;;;;;;;9.40;34.10;;;;;;6163390;23;19917;-75
2022/03/01 12:03:36;;;;;;;;;;;9.50;34.70;;;;;;6152460;23;19920;-77
2022/03/01 12:06:04;;;;;;;;;;;9.70;34.90;;;;;;6162378;23;20252;-76
2022/03/01 12:08:31;;;;;;;;;;;9.90;35.00;;;;;;6156178;23;19971;-77
2022/03/01 12:11:00;;;;;;;;;;;10.00;34.90;;;;;;6159122;23;19971;-76
2022/03/01 12:13:40;;;;;;;;;;;10.10;33.40;;;;;;6156550;23;19917;-77
2022/03/01 12:16:08;;;;;;;;;;;10.30;34.20;;;;;;6161505;23;19991;-76
2022/03/01 12:18:36;;;;;;;;;;;10.30;31.90;;;;;;6179872;23;20249;-76
2022/03/01 12:21:07;;;;;;;;;;;10.50;32.40;;;;;;6153011;23;19925;-77
2022/03/01 12:23:37;;;;;;;;;;;10.40;33.60;;;;;;6158719;23;19932;-77
2022/03/01 12:26:05;;;;;;;;;;;10.20;33.10;;;;;;6154475;23;19917;-77
2022/03/01 12:28:35;;;;;;;;;;;10.10;32.40;;;;;;6152577;23;20338;-77
2022/03/01 12:31:10;;;;;;;;;;;10.10;33.10;;;;;;6155311;23;19920;-77
2022/03/01 12:33:45;;;;;;;;;;;10.30;33.50;;;;;;6160973;23;19916;-75
2022/03/01 12:36:21;;;;;;;;;;;10.50;33.10;;;;;;6155634;23;19948;-76
2022/03/01 12:38:53;;;;;;;;;;;10.70;32.70;;;;;;6157006;23;20508;-75
2022/03/01 12:41:23;;;;;;;;;;;10.70;32.00;;;;;;6157091;23;20290;-75
2022/03/01 12:43:51;;;;;;;;;;;10.60;32.00;;;;;;6154763;23;19917;-76
2022/03/01 12:46:18;;;;;;;;;;;10.40;32.20;;;;;;6155985;23;19932;-76
2022/03/01 12:48:47;;;;;;;;;;;10.70;33.20;;;;;;6158958;23;19924;-75
2022/03/01 12:51:14;;;;;;;;;;;10.70;32.40;;;;;;6154649;23;19920;-76
2022/03/01 12:53:51;;;;;;;;;;;10.70;33.10;;;;;;6157322;23;19983;-76
2022/03/01 12:56:20;;;;;;;;;;;10.80;33.10;;;;;;6153400;23;19916;-77
2022/03/01 12:58:51;;;;;;;;;;;11.10;33.90;;;;;;6156314;23;20326;-75
2022/03/01 13:01:19;;;;;;;;;;;11.00;32.20;;;;;;6162854;23;19923;-75
2022/03/01 13:03:50;;;;;;;;;;;10.80;32.60;;;;;;6154461;23;19988;-75
2022/03/01 13:06:21;;;;;;;8.35;6.75;;;11.00;33.60;;;;;;6160388;23;19916;-76
2022/03/01 13:08:54;;;;;;;9.23;6.75;;;11.10;32.70;;;;;;6157568;23;20021;-76
2022/03/01 13:11:23;;;;;;;12.43;8.45;;;11.20;33.50;;;;;;6156201;23;20026;-77
2022/03/01 13:13:56;;;;;;;10.70;7.82;;;11.20;33.70;;;;;;6155532;23;20498;-77
2022/03/01 13:16:33;;;;;;;10.68;7.47;;;11.10;33.50;;;;;;6154841;23;20077;-76
2022/03/01 13:19:02;;;;;;;11.95;8.15;;;11.10;33.60;;;;;;6153651;23;20017;-75
2022/03/01 13:21:41;;;;;;;11.23;7.60;;;11.00;33.90;;;;;;6153612;23;20471;-77
2022/03/01 13:24:11;;;;;;;13.73;8.07;;;11.20;34.10;;;;;;6155423;23;20570;-75
2022/03/01 13:26:39;;;;;;;9.95;7.35;;;11.20;34.10;;;;;;6155162;23;20021;-77
2022/03/01 13:29:15;;;;;;;9.40;7.00;;;11.00;33.20;;;;;;6177892;23;20420;-76
2022/03/01 13:31:43;;;;;;;12.38;8.50;;;11.30;34.00;;;;;;6181843;23;20072;-77
2022/03/01 13:34:10;;;;;;;11.45;8.00;;;11.60;34.60;;;;;;6156549;23;20148;-76
2022/03/01 13:36:50;;;;;;;13.00;9.55;;;11.80;33.60;;;;;;6158235;23;20851;-76
2022/03/01 13:39:19;;;;;;;10.77;8.32;;;11.80;32.60;;;;;;6159885;23;20018;-75
2022/03/01 13:41:48;;;;;;;;;;;11.50;32.60;;;;;;6157690;23;20066;-76
2022/03/01 13:44:18;;;;;;;10.68;8.60;;;11.30;33.40;;;;;;6161668;23;19987;-76
2022/03/01 13:47:14;;;;;;;12.90;8.57;;;11.10;34.00;;;;;;6153739;23;20021;-76
2022/03/01 13:49:52;;;;;;;14.73;8.27;;;11.10;34.10;;;;;;6154104;23;20104;-76
2022/03/01 13:52:27;;;;;;;13.10;8.52;;;11.00;34.00;;;;;;6157221;23;20076;-75
2022/03/01 13:55:05;;;;;;;;;;;11.20;34.40;;;;;;6160559;23;20055;-75
2022/03/01 13:57:34;;;;;;;10.68;8.75;;;11.40;34.40;;;;;;6154029;23;19917;-75
2022/03/01 14:00:13;;;;;;;12.88;8.65;;;11.30;33.60;;;;;;6159137;23;20033;-75
2022/03/01 14:03:03;;;;;;;13.77;8.85;;;11.50;33.20;;;;;;6159879;23;20493;-76
2022/03/01 14:05:33;;;;;;;10.30;7.85;;;11.80;34.00;;;;;;6153074;23;20045;-76
2022/03/01 14:08:09;;;;;;;16.83;8.73;;;11.80;33.30;;;;;;6154061;23;20041;-76
2022/03/01 14:10:38;;;;;;;11.63;8.32;;;12.00;32.80;;;;;;6159511;23;20021;-77
2022/03/01 14:13:11;;;;;;;12.43;9.73;;;12.50;33.50;;;;;;6157153;23;20378;-76
2022/03/01 14:15:39;;;;;;;12.63;9.32;;;12.50;32.30;;;;;;6157571;23;20064;-76
2022/03/01 14:18:07;;;;;;;11.15;8.57;;;12.50;32.40;;;;;;6159385;23;20044;-76
2022/03/01 14:20:35;;;;;;;11.25;8.85;;;12.30;31.80;;;;;;6154360;23;20025;-77
2022/03/01 14:23:04;;;;;;;11.70;8.73;;;12.20;32.30;;;;;;6178406;23;20045;-76
2022/03/01 14:25:31;;;;;;;17.35;10.13;;;12.20;32.30;;;;;;6154882;23;20030;-76